Hartshill, United Kingdom
Current Conditions -  °F | °C
As of 12:20 PM on Thursday 18 Dec 2014 (Local Time) from EGBB Reporting Station
Broken Clouds Broken Clouds  
Wind Chill: 14°   Ceiling: 2200
Heat Index: 14°   Visibility: 6mi
Dew Point: 10°   Wind: 17mph
Humidity: 77%   Direction: 240°WSW
Pressure: 29.71"   Gusts: 32mph
Location:  52.54°N, 1.52°W
Report Text: EGBB 181220Z 24015G28KT 210V270 9999 BKN022 14/10 Q1006
Loading
Personal Weather Stations






























Interactive Weather Map New forecast layout! Learn more

10-Day Weather Forecast

Advertisements
Track Severe Weather on mobile